Terminal Aerodrome Forecast
Issued by NWS Cleveland, OH

Home | Current Version | Previous Version | Text Only | Print | Product List | Glossary On
Versions: 1 2 3 4 5 6 7 8 9 10 11 12 13 14 15 16 17
000
FTUS41 KCLE 062300
TAFERI
TAF
KERI 062339Z 0700/0724 22007KT P6SM SCT250
     FM070330 20013KT P6SM BKN080 OVC250
     FM071200 20013G20KT P6SM OVC050
     FM071700 22015G20KT P6SM VCSH BKN020 OVC060=

USA.gov is the U.S. government's official web portal to all federal, state and local government web resources and services.